sensor_id;sensor_type;location;lat;lon;timestamp;P1;P4;P2;P0;N10;N4;N25;N1;N05;TS
82310;SPS30;72015;51.330;12.316;2024-02-28T00:00:21;25.69;;22.80;;;;;;;
82310;SPS30;72015;51.330;12.316;2024-02-28T00:04:43;25.69;;22.80;;;;;;;
82310;SPS30;72015;51.330;12.316;2024-02-28T00:09:05;27.06;;23.00;;;;;;;
82310;SPS30;72015;51.330;12.316;2024-02-28T00:13:27;27.06;;23.00;;;;;;;
82310;SPS30;72015;51.330;12.316;2024-02-28T00:17:51;20.31;;18.42;;;;;;;
82310;SPS30;72015;51.330;12.316;2024-02-28T00:22:11;20.31;;18.42;;;;;;;
82310;SPS30;72015;51.330;12.316;2024-02-28T00:26:33;20.31;;18.42;;;;;;;
82310;SPS30;72015;51.330;12.316;2024-02-28T00:30:55;24.04;;20.66;;;;;;;
82310;SPS30;72015;51.330;12.316;2024-02-28T00:35:17;24.04;;20.66;;;;;;;
82310;SPS30;72015;51.330;12.316;2024-02-28T00:39:39;19.13;;17.72;;;;;;;
82310;SPS30;72015;51.330;12.316;2024-02-28T00:44:02;19.13;;17.72;;;;;;;
82310;SPS30;72015;51.330;12.316;2024-02-28T00:48:23;22.42;;19.41;;;;;;;
82310;SPS30;72015;51.330;12.316;2024-02-28T00:52:45;22.42;;19.41;;;;;;;
82310;SPS30;72015;51.330;12.316;2024-02-28T00:57:07;23.24;;20.49;;;;;;;
82310;SPS30;72015;51.330;12.316;2024-02-28T01:01:29;23.24;;20.49;;;;;;;
82310;SPS30;72015;51.330;12.316;2024-02-28T01:05:51;23.24;;20.49;;;;;;;
82310;SPS30;72015;51.330;12.316;2024-02-28T01:10:13;36.39;;28.23;;;;;;;
82310;SPS30;72015;51.330;12.316;2024-02-28T01:14:35;36.39;;28.23;;;;;;;
82310;SPS30;72015;51.330;12.316;2024-02-28T01:18:57;21.96;;19.92;;;;;;;
82310;SPS30;72015;51.330;12.316;2024-02-28T01:23:19;21.96;;19.92;;;;;;;
82310;SPS30;72015;51.330;12.316;2024-02-28T01:27:41;22.83;;20.56;;;;;;;
82310;SPS30;72015;51.330;12.316;2024-02-28T01:32:03;22.83;;20.56;;;;;;;
82310;SPS30;72015;51.330;12.316;2024-02-28T01:36:25;22.83;;20.56;;;;;;;
82310;SPS30;72015;51.330;12.316;2024-02-28T01:40:47;22.76;;19.88;;;;;;;
82310;SPS30;72015;51.330;12.316;2024-02-28T01:45:10;22.76;;19.88;;;;;;;
82310;SPS30;72015;51.330;12.316;2024-02-28T01:49:31;32.94;;26.19;;;;;;;
82310;SPS30;72015;51.330;12.316;2024-02-28T01:53:53;32.94;;26.19;;;;;;;
82310;SPS30;72015;51.330;12.316;2024-02-28T01:58:15;32.39;;26.82;;;;;;;
82310;SPS30;72015;51.330;12.316;2024-02-28T02:02:37;32.39;;26.82;;;;;;;
82310;SPS30;72015;51.330;12.316;2024-02-28T02:06:59;32.39;;26.82;;;;;;;
82310;SPS30;72015;51.330;12.316;2024-02-28T02:11:21;26.74;;24.39;;;;;;;
82310;SPS30;72015;51.330;12.316;2024-02-28T02:15:43;26.74;;24.39;;;;;;;
82310;SPS30;72015;51.330;12.316;2024-02-28T02:20:05;25.88;;22.52;;;;;;;
82310;SPS30;72015;51.330;12.316;2024-02-28T02:24:27;25.88;;22.52;;;;;;;
82310;SPS30;72015;51.330;12.316;2024-02-28T02:28:49;32.85;;27.06;;;;;;;
82310;SPS30;72015;51.330;12.316;2024-02-28T02:33:11;32.85;;27.06;;;;;;;
82310;SPS30;72015;51.330;12.316;2024-02-28T02:37:33;22.51;;20.92;;;;;;;
82310;SPS30;72015;51.330;12.316;2024-02-28T02:41:55;22.51;;20.92;;;;;;;
82310;SPS30;72015;51.330;12.316;2024-02-28T02:46:17;22.51;;20.92;;;;;;;
82310;SPS30;72015;51.330;12.316;2024-02-28T02:50:39;25.45;;22.29;;;;;;;
82310;SPS30;72015;51.330;12.316;2024-02-28T02:55:01;25.45;;22.29;;;;;;;
82310;SPS30;72015;51.330;12.316;2024-02-28T02:59:23;52.46;;38.07;;;;;;;
82310;SPS30;72015;51.330;12.316;2024-02-28T03:03:45;52.46;;38.07;;;;;;;
82310;SPS30;72015;51.330;12.316;2024-02-28T03:08:07;30.37;;25.17;;;;;;;
82310;SPS30;72015;51.330;12.316;2024-02-28T03:12:29;30.37;;25.17;;;;;;;
82310;SPS30;72015;51.330;12.316;2024-02-28T03:16:51;30.37;;25.17;;;;;;;
82310;SPS30;72015;51.330;12.316;2024-02-28T03:21:13;27.43;;23.39;;;;;;;
82310;SPS30;72015;51.330;12.316;2024-02-28T03:25:35;27.43;;23.39;;;;;;;
82310;SPS30;72015;51.330;12.316;2024-02-28T03:29:57;26.11;;22.41;;;;;;;
82310;SPS30;72015;51.330;12.316;2024-02-28T03:34:19;26.11;;22.41;;;;;;;
82310;SPS30;72015;51.330;12.316;2024-02-28T03:38:41;26.53;;22.90;;;;;;;
82310;SPS30;72015;51.330;12.316;2024-02-28T03:43:03;26.53;;22.90;;;;;;;
82310;SPS30;72015;51.330;12.316;2024-02-28T03:47:25;26.23;;22.18;;;;;;;
82310;SPS30;72015;51.330;12.316;2024-02-28T03:51:47;26.23;;22.18;;;;;;;
82310;SPS30;72015;51.330;12.316;2024-02-28T03:56:09;26.23;;22.18;;;;;;;
82310;SPS30;72015;51.330;12.316;2024-02-28T04:00:31;24.72;;21.84;;;;;;;
82310;SPS30;72015;51.330;12.316;2024-02-28T04:04:53;24.72;;21.84;;;;;;;
82310;SPS30;72015;51.330;12.316;2024-02-28T04:09:15;26.17;;23.24;;;;;;;
82310;SPS30;72015;51.330;12.316;2024-02-28T04:13:37;26.17;;23.24;;;;;;;
82310;SPS30;72015;51.330;12.316;2024-02-28T04:17:59;31.32;;27.17;;;;;;;
82310;SPS30;72015;51.330;12.316;2024-02-28T04:22:21;31.32;;27.17;;;;;;;
82310;SPS30;72015;51.330;12.316;2024-02-28T04:26:43;31.32;;27.17;;;;;;;
82310;SPS30;72015;51.330;12.316;2024-02-28T04:31:05;29.02;;25.49;;;;;;;
82310;SPS30;72015;51.330;12.316;2024-02-28T04:35:27;29.02;;25.49;;;;;;;
82310;SPS30;72015;51.330;12.316;2024-02-28T04:39:49;32.37;;27.88;;;;;;;
82310;SPS30;72015;51.330;12.316;2024-02-28T04:44:11;32.37;;27.88;;;;;;;
82310;SPS30;72015;51.330;12.316;2024-02-28T04:48:33;30.56;;26.87;;;;;;;
82310;SPS30;72015;51.330;12.316;2024-02-28T04:52:55;30.56;;26.87;;;;;;;
82310;SPS30;72015;51.330;12.316;2024-02-28T04:57:17;33.78;;28.54;;;;;;;
82310;SPS30;72015;51.330;12.316;2024-02-28T05:01:39;33.78;;28.54;;;;;;;
82310;SPS30;72015;51.330;12.316;2024-02-28T05:06:01;33.78;;28.54;;;;;;;
82310;SPS30;72015;51.330;12.316;2024-02-28T05:10:23;26.08;;23.48;;;;;;;
82310;SPS30;72015;51.330;12.316;2024-02-28T05:14:45;26.08;;23.48;;;;;;;
82310;SPS30;72015;51.330;12.316;2024-02-28T05:19:07;25.56;;22.89;;;;;;;
82310;SPS30;72015;51.330;12.316;2024-02-28T05:23:29;25.56;;22.89;;;;;;;
82310;SPS30;72015;51.330;12.316;2024-02-28T05:27:51;29.03;;24.25;;;;;;;
82310;SPS30;72015;51.330;12.316;2024-02-28T05:32:13;29.03;;24.25;;;;;;;
82310;SPS30;72015;51.330;12.316;2024-02-28T05:36:35;29.03;;24.25;;;;;;;
82310;SPS30;72015;51.330;12.316;2024-02-28T05:40:57;25.37;;21.64;;;;;;;
82310;SPS30;72015;51.330;12.316;2024-02-28T05:45:19;25.37;;21.64;;;;;;;
82310;SPS30;72015;51.330;12.316;2024-02-28T05:49:41;27.70;;23.89;;;;;;;
82310;SPS30;72015;51.330;12.316;2024-02-28T05:54:03;27.70;;23.89;;;;;;;
82310;SPS30;72015;51.330;12.316;2024-02-28T05:58:25;23.26;;20.56;;;;;;;
82310;SPS30;72015;51.330;12.316;2024-02-28T06:02:47;23.26;;20.56;;;;;;;
82310;SPS30;72015;51.330;12.316;2024-02-28T06:07:09;28.40;;23.54;;;;;;;
82310;SPS30;72015;51.330;12.316;2024-02-28T06:11:31;28.40;;23.54;;;;;;;
82310;SPS30;72015;51.330;12.316;2024-02-28T06:15:53;28.40;;23.54;;;;;;;
82310;SPS30;72015;51.330;12.316;2024-02-28T06:20:15;33.79;;29.20;;;;;;;
82310;SPS30;72015;51.330;12.316;2024-02-28T06:24:37;33.79;;29.20;;;;;;;
82310;SPS30;72015;51.330;12.316;2024-02-28T06:28:59;26.62;;24.25;;;;;;;
82310;SPS30;72015;51.330;12.316;2024-02-28T06:33:21;26.62;;24.25;;;;;;;
82310;SPS30;72015;51.330;12.316;2024-02-28T06:37:43;31.84;;29.09;;;;;;;
82310;SPS30;72015;51.330;12.316;2024-02-28T06:42:05;31.84;;29.09;;;;;;;
82310;SPS30;72015;51.330;12.316;2024-02-28T06:46:30;31.84;;29.09;;;;;;;
82310;SPS30;72015;51.330;12.316;2024-02-28T06:50:49;34.45;;31.12;;;;;;;
82310;SPS30;72015;51.330;12.316;2024-02-28T06:55:11;34.45;;31.12;;;;;;;
82310;SPS30;72015;51.330;12.316;2024-02-28T06:59:33;41.42;;35.39;;;;;;;
82310;SPS30;72015;51.330;12.316;2024-02-28T07:03:55;41.42;;35.39;;;;;;;
82310;SPS30;72015;51.330;12.316;2024-02-28T07:08:17;54.13;;42.27;;;;;;;
82310;SPS30;72015;51.330;12.316;2024-02-28T07:12:39;54.13;;42.27;;;;;;;
82310;SPS30;72015;51.330;12.316;2024-02-28T07:17:01;47.61;;38.94;;;;;;;
82310;SPS30;72015;51.330;12.316;2024-02-28T07:21:23;47.61;;38.94;;;;;;;
82310;SPS30;72015;51.330;12.316;2024-02-28T07:25:45;47.61;;38.94;;;;;;;
82310;SPS30;72015;51.330;12.316;2024-02-28T07:30:08;60.65;;47.23;;;;;;;
82310;SPS30;72015;51.330;12.316;2024-02-28T07:34:29;60.65;;47.23;;;;;;;
82310;SPS30;72015;51.330;12.316;2024-02-28T07:38:52;46.45;;39.63;;;;;;;
82310;SPS30;72015;51.330;12.316;2024-02-28T07:43:14;46.45;;39.63;;;;;;;
82310;SPS30;72015;51.330;12.316;2024-02-28T07:47:36;55.66;;45.12;;;;;;;
82310;SPS30;72015;51.330;12.316;2024-02-28T07:51:58;55.66;;45.12;;;;;;;
82310;SPS30;72015;51.330;12.316;2024-02-28T07:56:20;55.66;;45.12;;;;;;;
82310;SPS30;72015;51.330;12.316;2024-02-28T08:00:42;93.31;;74.75;;;;;;;
82310;SPS30;72015;51.330;12.316;2024-02-28T08:05:04;93.31;;74.75;;;;;;;
82310;SPS30;72015;51.330;12.316;2024-02-28T08:09:26;49.80;;39.77;;;;;;;
82310;SPS30;72015;51.330;12.316;2024-02-28T08:13:48;49.80;;39.77;;;;;;;
82310;SPS30;72015;51.330;12.316;2024-02-28T08:18:10;42.59;;36.31;;;;;;;
82310;SPS30;72015;51.330;12.316;2024-02-28T08:22:31;42.59;;36.31;;;;;;;
82310;SPS30;72015;51.330;12.316;2024-02-28T08:26:53;42.59;;36.31;;;;;;;
82310;SPS30;72015;51.330;12.316;2024-02-28T08:31:16;50.07;;41.17;;;;;;;
82310;SPS30;72015;51.330;12.316;2024-02-28T08:35:38;50.07;;41.17;;;;;;;
82310;SPS30;72015;51.330;12.316;2024-02-28T08:39:59;39.42;;34.50;;;;;;;
82310;SPS30;72015;51.330;12.316;2024-02-28T08:44:21;39.42;;34.50;;;;;;;
82310;SPS30;72015;51.330;12.316;2024-02-28T08:48:43;34.95;;30.28;;;;;;;
82310;SPS30;72015;51.330;12.316;2024-02-28T08:53:05;34.95;;30.28;;;;;;;
82310;SPS30;72015;51.330;12.316;2024-02-28T08:57:28;34.74;;32.24;;;;;;;
82310;SPS30;72015;51.330;12.316;2024-02-28T09:01:50;34.74;;32.24;;;;;;;
82310;SPS30;72015;51.330;12.316;2024-02-28T09:06:12;34.74;;32.24;;;;;;;
82310;SPS30;72015;51.330;12.316;2024-02-28T09:10:33;36.04;;30.37;;;;;;;
82310;SPS30;72015;51.330;12.316;2024-02-28T09:14:56;36.04;;30.37;;;;;;;
82310;SPS30;72015;51.330;12.316;2024-02-28T09:19:18;30.89;;28.64;;;;;;;
82310;SPS30;72015;51.330;12.316;2024-02-28T09:23:40;30.89;;28.64;;;;;;;
82310;SPS30;72015;51.330;12.316;2024-02-28T09:28:02;33.38;;29.96;;;;;;;
82310;SPS30;72015;51.330;12.316;2024-02-28T09:32:24;33.38;;29.96;;;;;;;
82310;SPS30;72015;51.330;12.316;2024-02-28T09:36:46;33.38;;29.96;;;;;;;
82310;SPS30;72015;51.330;12.316;2024-02-28T09:41:08;34.21;;31.18;;;;;;;
82310;SPS30;72015;51.330;12.316;2024-02-28T09:45:30;34.21;;31.18;;;;;;;
82310;SPS30;72015;51.330;12.316;2024-02-28T09:49:52;40.24;;35.04;;;;;;;
82310;SPS30;72015;51.330;12.316;2024-02-28T09:54:14;40.24;;35.04;;;;;;;
82310;SPS30;72015;51.330;12.316;2024-02-28T09:58:36;37.24;;34.50;;;;;;;
82310;SPS30;72015;51.330;12.316;2024-02-28T10:02:58;37.24;;34.50;;;;;;;
82310;SPS30;72015;51.330;12.316;2024-02-28T10:07:20;34.76;;32.16;;;;;;;
82310;SPS30;72015;51.330;12.316;2024-02-28T10:11:41;34.76;;32.16;;;;;;;
82310;SPS30;72015;51.330;12.316;2024-02-28T10:16:06;34.76;;32.16;;;;;;;
82310;SPS30;72015;51.330;12.316;2024-02-28T10:20:25;32.82;;29.61;;;;;;;
82310;SPS30;72015;51.330;12.316;2024-02-28T10:24:47;32.82;;29.61;;;;;;;
82310;SPS30;72015;51.330;12.316;2024-02-28T10:29:09;30.30;;28.43;;;;;;;
82310;SPS30;72015;51.330;12.316;2024-02-28T10:33:31;30.30;;28.43;;;;;;;
82310;SPS30;72015;51.330;12.316;2024-02-28T10:37:54;33.90;;30.13;;;;;;;
82310;SPS30;72015;51.330;12.316;2024-02-28T10:42:16;33.90;;30.13;;;;;;;
82310;SPS30;72015;51.330;12.316;2024-02-28T10:46:38;33.90;;30.13;;;;;;;
82310;SPS30;72015;51.330;12.316;2024-02-28T10:51:00;25.89;;23.73;;;;;;;
82310;SPS30;72015;51.330;12.316;2024-02-28T10:55:22;25.89;;23.73;;;;;;;
82310;SPS30;72015;51.330;12.316;2024-02-28T10:59:43;37.77;;29.57;;;;;;;
82310;SPS30;72015;51.330;12.316;2024-02-28T11:04:05;37.77;;29.57;;;;;;;
82310;SPS30;72015;51.330;12.316;2024-02-28T11:08:28;35.94;;29.33;;;;;;;
82310;SPS30;72015;51.330;12.316;2024-02-28T11:12:54;35.94;;29.33;;;;;;;
82310;SPS30;72015;51.330;12.316;2024-02-28T11:17:11;32.23;;27.97;;;;;;;
82310;SPS30;72015;51.330;12.316;2024-02-28T11:21:34;32.23;;27.97;;;;;;;
82310;SPS30;72015;51.330;12.316;2024-02-28T11:25:55;32.23;;27.97;;;;;;;
82310;SPS30;72015;51.330;12.316;2024-02-28T11:30:17;24.07;;21.71;;;;;;;
82310;SPS30;72015;51.330;12.316;2024-02-28T11:34:39;24.07;;21.71;;;;;;;
82310;SPS30;72015;51.330;12.316;2024-02-28T11:39:02;20.47;;19.61;;;;;;;
82310;SPS30;72015;51.330;12.316;2024-02-28T11:47:49;25.03;;21.37;;;;;;;
82310;SPS30;72015;51.330;12.316;2024-02-28T11:52:11;25.03;;21.37;;;;;;;
82310;SPS30;72015;51.330;12.316;2024-02-28T11:56:33;25.03;;21.37;;;;;;;
82310;SPS30;72015;51.330;12.316;2024-02-28T12:00:55;18.38;;17.67;;;;;;;
82310;SPS30;72015;51.330;12.316;2024-02-28T12:05:19;18.38;;17.67;;;;;;;
82310;SPS30;72015;51.330;12.316;2024-02-28T12:09:39;25.62;;21.55;;;;;;;
82310;SPS30;72015;51.330;12.316;2024-02-28T12:14:04;25.62;;21.55;;;;;;;
82310;SPS30;72015;51.330;12.316;2024-02-28T12:18:23;18.48;;17.22;;;;;;;
82310;SPS30;72015;51.330;12.316;2024-02-28T12:22:45;18.48;;17.22;;;;;;;
82310;SPS30;72015;51.330;12.316;2024-02-28T12:27:07;17.06;;15.63;;;;;;;
82310;SPS30;72015;51.330;12.316;2024-02-28T12:31:29;17.06;;15.63;;;;;;;
82310;SPS30;72015;51.330;12.316;2024-02-28T12:35:51;17.06;;15.63;;;;;;;
82310;SPS30;72015;51.330;12.316;2024-02-28T12:40:13;16.96;;15.38;;;;;;;
82310;SPS30;72015;51.330;12.316;2024-02-28T12:44:35;16.96;;15.38;;;;;;;
82310;SPS30;72015;51.330;12.316;2024-02-28T12:48:57;16.16;;14.99;;;;;;;
82310;SPS30;72015;51.330;12.316;2024-02-28T12:53:19;16.16;;14.99;;;;;;;
82310;SPS30;72015;51.330;12.316;2024-02-28T12:57:41;14.16;;12.94;;;;;;;
82310;SPS30;72015;51.330;12.316;2024-02-28T13:02:03;14.16;;12.94;;;;;;;
82310;SPS30;72015;51.330;12.316;2024-02-28T13:06:25;14.16;;12.94;;;;;;;
82310;SPS30;72015;51.330;12.316;2024-02-28T13:10:47;18.26;;15.65;;;;;;;
82310;SPS30;72015;51.330;12.316;2024-02-28T13:15:09;18.26;;15.65;;;;;;;
82310;SPS30;72015;51.330;12.316;2024-02-28T13:19:31;13.02;;12.09;;;;;;;
82310;SPS30;72015;51.330;12.316;2024-02-28T13:23:53;13.02;;12.09;;;;;;;
82310;SPS30;72015;51.330;12.316;2024-02-28T13:28:15;13.10;;12.29;;;;;;;
82310;SPS30;72015;51.330;12.316;2024-02-28T13:32:37;13.10;;12.29;;;;;;;
82310;SPS30;72015;51.330;12.316;2024-02-28T13:36:59;13.10;;12.29;;;;;;;
82310;SPS30;72015;51.330;12.316;2024-02-28T13:41:21;14.35;;12.98;;;;;;;
82310;SPS30;72015;51.330;12.316;2024-02-28T13:45:46;14.35;;12.98;;;;;;;
82310;SPS30;72015;51.330;12.316;2024-02-28T13:50:05;12.72;;12.08;;;;;;;
82310;SPS30;72015;51.330;12.316;2024-02-28T13:54:27;12.72;;12.08;;;;;;;
82310;SPS30;72015;51.330;12.316;2024-02-28T13:58:49;14.74;;13.07;;;;;;;
82310;SPS30;72015;51.330;12.316;2024-02-28T14:03:11;14.74;;13.07;;;;;;;
82310;SPS30;72015;51.330;12.316;2024-02-28T14:07:33;14.97;;14.45;;;;;;;
82310;SPS30;72015;51.330;12.316;2024-02-28T14:11:55;14.97;;14.45;;;;;;;
82310;SPS30;72015;51.330;12.316;2024-02-28T14:16:17;14.97;;14.45;;;;;;;
82310;SPS30;72015;51.330;12.316;2024-02-28T14:20:39;12.17;;12.15;;;;;;;
82310;SPS30;72015;51.330;12.316;2024-02-28T14:25:01;12.17;;12.15;;;;;;;
82310;SPS30;72015;51.330;12.316;2024-02-28T14:29:23;15.06;;13.89;;;;;;;
82310;SPS30;72015;51.330;12.316;2024-02-28T14:33:45;15.06;;13.89;;;;;;;
82310;SPS30;72015;51.330;12.316;2024-02-28T14:38:07;12.40;;12.40;;;;;;;
82310;SPS30;72015;51.330;12.316;2024-02-28T14:42:29;12.40;;12.40;;;;;;;
82310;SPS30;72015;51.330;12.316;2024-02-28T14:46:52;12.40;;12.40;;;;;;;
82310;SPS30;72015;51.330;12.316;2024-02-28T14:51:13;19.75;;16.58;;;;;;;
82310;SPS30;72015;51.330;12.316;2024-02-28T14:55:35;19.75;;16.58;;;;;;;
82310;SPS30;72015;51.330;12.316;2024-02-28T14:59:57;19.14;;16.48;;;;;;;
82310;SPS30;72015;51.330;12.316;2024-02-28T15:04:19;19.14;;16.48;;;;;;;
82310;SPS30;72015;51.330;12.316;2024-02-28T15:08:41;17.00;;15.92;;;;;;;
82310;SPS30;72015;51.330;12.316;2024-02-28T15:13:03;17.00;;15.92;;;;;;;
82310;SPS30;72015;51.330;12.316;2024-02-28T15:17:25;15.57;;14.18;;;;;;;
82310;SPS30;72015;51.330;12.316;2024-02-28T15:21:47;15.57;;14.18;;;;;;;
82310;SPS30;72015;51.330;12.316;2024-02-28T15:26:09;15.57;;14.18;;;;;;;
82310;SPS30;72015;51.330;12.316;2024-02-28T15:30:31;16.01;;14.45;;;;;;;
82310;SPS30;72015;51.330;12.316;2024-02-28T15:34:53;16.01;;14.45;;;;;;;
82310;SPS30;72015;51.330;12.316;2024-02-28T15:39:15;19.29;;16.85;;;;;;;
82310;SPS30;72015;51.330;12.316;2024-02-28T15:43:37;19.29;;16.85;;;;;;;
82310;SPS30;72015;51.330;12.316;2024-02-28T15:47:59;15.70;;14.07;;;;;;;
82310;SPS30;72015;51.330;12.316;2024-02-28T15:52:21;15.70;;14.07;;;;;;;
82310;SPS30;72015;51.330;12.316;2024-02-28T15:56:43;15.70;;14.07;;;;;;;
82310;SPS30;72015;51.330;12.316;2024-02-28T16:01:05;14.76;;13.84;;;;;;;
82310;SPS30;72015;51.330;12.316;2024-02-28T16:05:27;14.76;;13.84;;;;;;;
82310;SPS30;72015;51.330;12.316;2024-02-28T16:09:49;23.40;;20.37;;;;;;;
82310;SPS30;72015;51.330;12.316;2024-02-28T16:14:11;23.40;;20.37;;;;;;;
82310;SPS30;72015;51.330;12.316;2024-02-28T16:18:33;20.49;;16.99;;;;;;;
82310;SPS30;72015;51.330;12.316;2024-02-28T16:22:55;20.49;;16.99;;;;;;;
82310;SPS30;72015;51.330;12.316;2024-02-28T16:27:17;14.88;;13.54;;;;;;;
82310;SPS30;72015;51.330;12.316;2024-02-28T16:31:39;14.88;;13.54;;;;;;;
82310;SPS30;72015;51.330;12.316;2024-02-28T16:36:01;14.88;;13.54;;;;;;;
82310;SPS30;72015;51.330;12.316;2024-02-28T16:40:23;16.73;;14.40;;;;;;;
82310;SPS30;72015;51.330;12.316;2024-02-28T16:44:45;16.73;;14.40;;;;;;;
82310;SPS30;72015;51.330;12.316;2024-02-28T16:49:07;14.62;;13.07;;;;;;;
82310;SPS30;72015;51.330;12.316;2024-02-28T16:53:29;14.62;;13.07;;;;;;;
82310;SPS30;72015;51.330;12.316;2024-02-28T16:57:51;14.84;;13.27;;;;;;;
82310;SPS30;72015;51.330;12.316;2024-02-28T17:02:13;14.84;;13.27;;;;;;;
82310;SPS30;72015;51.330;12.316;2024-02-28T17:06:35;14.84;;13.27;;;;;;;
82310;SPS30;72015;51.330;12.316;2024-02-28T17:10:58;12.78;;12.44;;;;;;;
82310;SPS30;72015;51.330;12.316;2024-02-28T17:15:19;12.78;;12.44;;;;;;;
82310;SPS30;72015;51.330;12.316;2024-02-28T17:19:41;19.22;;16.26;;;;;;;
82310;SPS30;72015;51.330;12.316;2024-02-28T17:24:04;19.22;;16.26;;;;;;;
82310;SPS30;72015;51.330;12.316;2024-02-28T17:28:26;15.45;;14.50;;;;;;;
82310;SPS30;72015;51.330;12.316;2024-02-28T17:32:47;15.45;;14.50;;;;;;;
82310;SPS30;72015;51.330;12.316;2024-02-28T17:37:09;19.29;;17.54;;;;;;;
82310;SPS30;72015;51.330;12.316;2024-02-28T17:41:31;19.29;;17.54;;;;;;;
82310;SPS30;72015;51.330;12.316;2024-02-28T17:45:53;19.29;;17.54;;;;;;;
82310;SPS30;72015;51.330;12.316;2024-02-28T17:50:15;29.40;;23.21;;;;;;;
82310;SPS30;72015;51.330;12.316;2024-02-28T17:54:37;29.40;;23.21;;;;;;;
82310;SPS30;72015;51.330;12.316;2024-02-28T17:58:59;25.04;;20.95;;;;;;;
82310;SPS30;72015;51.330;12.316;2024-02-28T18:03:22;25.04;;20.95;;;;;;;
82310;SPS30;72015;51.330;12.316;2024-02-28T18:07:43;28.85;;23.96;;;;;;;
82310;SPS30;72015;51.330;12.316;2024-02-28T18:12:05;28.85;;23.96;;;;;;;
82310;SPS30;72015;51.330;12.316;2024-02-28T18:16:27;28.85;;23.96;;;;;;;
82310;SPS30;72015;51.330;12.316;2024-02-28T18:20:49;27.51;;24.24;;;;;;;
82310;SPS30;72015;51.330;12.316;2024-02-28T18:25:11;27.51;;24.24;;;;;;;
82310;SPS30;72015;51.330;12.316;2024-02-28T18:29:34;26.01;;23.10;;;;;;;
82310;SPS30;72015;51.330;12.316;2024-02-28T18:33:55;26.01;;23.10;;;;;;;
82310;SPS30;72015;51.330;12.316;2024-02-28T18:38:17;25.16;;23.46;;;;;;;
82310;SPS30;72015;51.330;12.316;2024-02-28T18:42:39;25.16;;23.46;;;;;;;
82310;SPS30;72015;51.330;12.316;2024-02-28T18:47:01;28.31;;26.07;;;;;;;
82310;SPS30;72015;51.330;12.316;2024-02-28T18:51:23;28.31;;26.07;;;;;;;
82310;SPS30;72015;51.330;12.316;2024-02-28T18:55:45;28.31;;26.07;;;;;;;
82310;SPS30;72015;51.330;12.316;2024-02-28T19:00:08;50.68;;41.07;;;;;;;
82310;SPS30;72015;51.330;12.316;2024-02-28T19:04:29;50.68;;41.07;;;;;;;
82310;SPS30;72015;51.330;12.316;2024-02-28T19:08:51;42.88;;38.25;;;;;;;
82310;SPS30;72015;51.330;12.316;2024-02-28T19:13:13;42.88;;38.25;;;;;;;
82310;SPS30;72015;51.330;12.316;2024-02-28T19:17:35;38.31;;35.49;;;;;;;
82310;SPS30;72015;51.330;12.316;2024-02-28T19:21:57;38.31;;35.49;;;;;;;
82310;SPS30;72015;51.330;12.316;2024-02-28T19:26:19;38.31;;35.49;;;;;;;
82310;SPS30;72015;51.330;12.316;2024-02-28T19:30:41;37.25;;36.15;;;;;;;
82310;SPS30;72015;51.330;12.316;2024-02-28T19:35:04;37.25;;36.15;;;;;;;
82310;SPS30;72015;51.330;12.316;2024-02-28T19:39:25;42.68;;35.48;;;;;;;
82310;SPS30;72015;51.330;12.316;2024-02-28T19:43:48;42.68;;35.48;;;;;;;
82310;SPS30;72015;51.330;12.316;2024-02-28T19:48:10;31.92;;30.78;;;;;;;
82310;SPS30;72015;51.330;12.316;2024-02-28T19:52:32;31.92;;30.78;;;;;;;
82310;SPS30;72015;51.330;12.316;2024-02-28T19:56:54;31.92;;30.78;;;;;;;
82310;SPS30;72015;51.330;12.316;2024-02-28T20:01:16;34.88;;31.68;;;;;;;
82310;SPS30;72015;51.330;12.316;2024-02-28T20:05:38;34.88;;31.68;;;;;;;
82310;SPS30;72015;51.330;12.316;2024-02-28T20:10:00;35.71;;31.70;;;;;;;
82310;SPS30;72015;51.330;12.316;2024-02-28T20:14:22;35.71;;31.70;;;;;;;
82310;SPS30;72015;51.330;12.316;2024-02-28T20:18:44;25.96;;25.37;;;;;;;
82310;SPS30;72015;51.330;12.316;2024-02-28T20:23:06;25.96;;25.37;;;;;;;
82310;SPS30;72015;51.330;12.316;2024-02-28T20:27:28;42.77;;39.46;;;;;;;
82310;SPS30;72015;51.330;12.316;2024-02-28T20:31:50;42.77;;39.46;;;;;;;
82310;SPS30;72015;51.330;12.316;2024-02-28T20:36:12;42.77;;39.46;;;;;;;
82310;SPS30;72015;51.330;12.316;2024-02-28T20:40:34;42.74;;37.68;;;;;;;
82310;SPS30;72015;51.330;12.316;2024-02-28T20:44:56;42.74;;37.68;;;;;;;
82310;SPS30;72015;51.330;12.316;2024-02-28T20:49:18;33.54;;30.44;;;;;;;
82310;SPS30;72015;51.330;12.316;2024-02-28T20:53:40;33.54;;30.44;;;;;;;
82310;SPS30;72015;51.330;12.316;2024-02-28T20:58:02;32.24;;28.66;;;;;;;
82310;SPS30;72015;51.330;12.316;2024-02-28T21:02:24;32.24;;28.66;;;;;;;
82310;SPS30;72015;51.330;12.316;2024-02-28T21:06:46;32.24;;28.66;;;;;;;
82310;SPS30;72015;51.330;12.316;2024-02-28T21:11:09;33.87;;30.67;;;;;;;
82310;SPS30;72015;51.330;12.316;2024-02-28T21:15:30;33.87;;30.67;;;;;;;
82310;SPS30;72015;51.330;12.316;2024-02-28T21:19:52;44.22;;38.26;;;;;;;
82310;SPS30;72015;51.330;12.316;2024-02-28T21:24:14;44.22;;38.26;;;;;;;
82310;SPS30;72015;51.330;12.316;2024-02-28T21:28:36;34.18;;30.03;;;;;;;
82310;SPS30;72015;51.330;12.316;2024-02-28T21:32:58;34.18;;30.03;;;;;;;
82310;SPS30;72015;51.330;12.316;2024-02-28T21:37:20;40.07;;33.86;;;;;;;
82310;SPS30;72015;51.330;12.316;2024-02-28T21:41:42;40.07;;33.86;;;;;;;
82310;SPS30;72015;51.330;12.316;2024-02-28T21:46:04;40.07;;33.86;;;;;;;
82310;SPS30;72015;51.330;12.316;2024-02-28T21:50:26;23.06;;22.87;;;;;;;
82310;SPS30;72015;51.330;12.316;2024-02-28T21:54:48;23.06;;22.87;;;;;;;
82310;SPS30;72015;51.330;12.316;2024-02-28T21:59:10;29.60;;26.16;;;;;;;
82310;SPS30;72015;51.330;12.316;2024-02-28T22:03:32;29.60;;26.16;;;;;;;
82310;SPS30;72015;51.330;12.316;2024-02-28T22:07:54;36.01;;30.12;;;;;;;
82310;SPS30;72015;51.330;12.316;2024-02-28T22:12:16;36.01;;30.12;;;;;;;
82310;SPS30;72015;51.330;12.316;2024-02-28T22:16:38;36.01;;30.12;;;;;;;
82310;SPS30;72015;51.330;12.316;2024-02-28T22:21:00;27.30;;24.96;;;;;;;
82310;SPS30;72015;51.330;12.316;2024-02-28T22:25:22;27.30;;24.96;;;;;;;
82310;SPS30;72015;51.330;12.316;2024-02-28T22:29:44;36.99;;30.18;;;;;;;
82310;SPS30;72015;51.330;12.316;2024-02-28T22:34:06;36.99;;30.18;;;;;;;
82310;SPS30;72015;51.330;12.316;2024-02-28T22:38:28;28.67;;26.08;;;;;;;
82310;SPS30;72015;51.330;12.316;2024-02-28T22:42:50;28.67;;26.08;;;;;;;
82310;SPS30;72015;51.330;12.316;2024-02-28T22:47:12;35.07;;29.79;;;;;;;
82310;SPS30;72015;51.330;12.316;2024-02-28T22:51:34;35.07;;29.79;;;;;;;
82310;SPS30;72015;51.330;12.316;2024-02-28T22:55:56;35.07;;29.79;;;;;;;
82310;SPS30;72015;51.330;12.316;2024-02-28T23:00:18;27.43;;24.96;;;;;;;
82310;SPS30;72015;51.330;12.316;2024-02-28T23:04:40;27.43;;24.96;;;;;;;
82310;SPS30;72015;51.330;12.316;2024-02-28T23:09:02;29.38;;27.15;;;;;;;
82310;SPS30;72015;51.330;12.316;2024-02-28T23:13:24;29.38;;27.15;;;;;;;
82310;SPS30;72015;51.330;12.316;2024-02-28T23:17:46;32.66;;28.51;;;;;;;
82310;SPS30;72015;51.330;12.316;2024-02-28T23:22:08;32.66;;28.51;;;;;;;
82310;SPS30;72015;51.330;12.316;2024-02-28T23:26:30;32.66;;28.51;;;;;;;
82310;SPS30;72015;51.330;12.316;2024-02-28T23:30:52;26.04;;24.82;;;;;;;
82310;SPS30;72015;51.330;12.316;2024-02-28T23:35:14;26.04;;24.82;;;;;;;
82310;SPS30;72015;51.330;12.316;2024-02-28T23:39:36;31.76;;28.08;;;;;;;
82310;SPS30;72015;51.330;12.316;2024-02-28T23:43:58;31.76;;28.08;;;;;;;
82310;SPS30;72015;51.330;12.316;2024-02-28T23:48:20;36.26;;30.36;;;;;;;
82310;SPS30;72015;51.330;12.316;2024-02-28T23:52:42;36.26;;30.36;;;;;;;
82310;SPS30;72015;51.330;12.316;2024-02-28T23:57:04;31.86;;28.10;;;;;;;
